Weather observations for the past three days for
York, York Municipal Airport
Metric (Imperial)
Date Time (cdt) Wind (kph) Vis. (km) Weather Sky Cond. Temperature (ºC) Relative Humidity Wind Chill (°C) Heat Index (°C) Pressure Precipitation (cm)
Air Dwpt 6 hour altimeter (cm) sea level (mb) 1 hr 3 hr 6 hr
Max. Min.
05 17:35 NW 24 G 41 16.09 Partly Cloudy FEW075 SCT085 14 -3 31% 75.92 0.0
05 17:15 NW 26 16.09 Mostly Cloudy SCT070 BKN085 14 -3 31% 75.95 0.0
05 16:55 NW 19 16.09 Mostly Cloudy BKN070 BKN080 14 -2 33% 75.95 0.0
05 16:35 N 13 16.09 Mostly Cloudy BKN065 BKN080 13 -1 38% 75.97 0.0
05 16:15 N 13 G 22 16.09 Partly Cloudy SCT060 SCT075 13 -1 38% 75.97 0.0
05 15:35 N 15 16.09 A Few Clouds FEW075 14 -1 36% 76.02 0.0
05 15:15 NW 19 16.09 Partly Cloudy FEW060 SCT070 13 -1 38% 76.02 0.0
05 14:55 NW 19 16.09 Mostly Cloudy SCT060 BKN070 13 -1 38% 76.05 0.0
05 14:35 NW 19 16.09 Partly Cloudy SCT060 13 -2 36% 76.05 0.0
05 14:15 NW 19 G 28 16.09 A Few Clouds FEW065 13 -1 38% 76.05 0.0
05 13:55 N 17 16.09 A Few Clouds FEW060 14 -1 36% 76.05 0.0
05 13:35 N 15 16.09 Fair CLR 13 -1 38% 76.07 0.0
05 13:15 NW 15 16.09 Fair CLR 13 -1 38% 76.07 0.0
05 12:55 N 13 G 24 16.09 Mostly Cloudy BKN080 12 0 44% 76.1 0.0
05 12:35 N 24 16.09 Partly Cloudy SCT075 11 1 50% 76.12 0.0
05 12:15 N 17 G 33 16.09 Mostly Cloudy SCT065 BKN080 11 1 50% 76.12 0.0
05 11:55 NW 17 16.09 Partly Cloudy FEW048 SCT060 SCT075 11 1 50% 76.12 0.0
05 11:35 N 17 G 35 16.09 Light Rain SCT048 SCT060 10 0 50% 8 76.12 0.0
05 11:15 N 24 G 35 16.09 Partly Cloudy SCT060 SCT085 11 -1 44% 76.12 0.0
05 10:35 N 17 16.09 Overcast OVC070 10 -1 47% 8 76.07 0.0
05 10:15 N 17 16.09 Mostly Cloudy SCT070 BKN100 11 -1 44% 76.07 0.0
05 09:55 N 17 16.09 Overcast OVC100 10 -1 47% 8 76.07 0.0
05 09:35 N 15 16.09 Overcast OVC100 10 -1 47% 8 76.05 0.0
05 09:15 N 19 16.09 Overcast OVC100 10 -1 47% 8 76.02 0.0
05 08:55 N 13 16.09 Overcast OVC100 10 1 54% 8 76.02 0.0
05 08:35 N 9 16.09 Overcast OVC100 9 2 62% 8 76.02 0.0
05 08:15 NE 9 16.09 Overcast OVC095 9 2 62% 8 76 0.0
05 07:55 N 9 16.09 Overcast OVC095 9 3 66% 8 76 0.0
05 07:35 NE 11 16.09 Overcast OVC100 9 3 66% 8 75.95 0.0
05 07:15 NE 9 16.09 Overcast OVC100 9 4 71% 8 75.95 0.0
05 06:55 NE 11 16.09 Overcast OVC100 9 5 76% 8 75.9 0.0
05 06:35 NE 13 16.09 Overcast OVC100 9 6 82% 7 75.87 0.0
05 06:15 NE 15 16.09 Overcast FEW070 FEW085 OVC100 9 6 82% 7 75.84 0.0
05 05:55 NE 7 16.09 Overcast FEW065 BKN075 OVC110 8 7 93% 7 75.79 0.0
05 05:35 N 7 16.09 Overcast BKN065 OVC075 8 7 93% 7 75.79 0.0
05 05:15 NE 6 16.09 Overcast BKN075 OVC095 8 7 93% 75.79 0.0
05 04:55 NE 9 16.09 Overcast BKN080 OVC090 8 7 93% 7 75.79 0.0
05 04:35 Calm 16.09 Overcast SCT080 BKN095 OVC120 8 5 82% 75.79 0.0
05 04:15 NE 6 16.09 Overcast SCT075 BKN090 OVC120 9 5 76% 75.79 0.0
05 03:55 Calm 16.09 Overcast BKN075 OVC090 10 5 71% 75.82 0.0
05 03:35 Calm 16.09 Overcast FEW080 OVC095 10 4 67% 75.79 0.0
05 03:15 Calm 16.09 Overcast FEW080 OVC100 10 5 71% 75.79 0.0
05 02:55 Calm 16.09 Overcast FEW065 BKN080 OVC095 10 5 71% 75.77 0.0
05 02:35 Calm 16.09 Overcast OVC075 10 5 71% 75.79 0.0
05 02:15 Calm 16.09 Overcast BKN065 OVC075 10 5 71% 75.79 0.0
05 01:55 NE 7 16.09 Overcast FEW048 SCT060 OVC070 10 5 71% 9 75.77 0.0
05 01:35 Calm 16.09 Light Rain FEW036 SCT047 BKN070 10 5 71% 75.77 0.0
05 01:15 E 9 16.09 Overcast FEW050 SCT075 OVC090 10 5 71% 9 75.77 0.0
05 00:55 E 9 16.09 Overcast OVC090 10 5 71% 9 75.77 0.0
05 00:35 NE 15 16.09 Overcast OVC090 10 5 71% 8 75.74 0.0
05 00:15 NE 19 16.09 Light Rain FEW042 SCT075 OVC095 10 5 71% 8 75.72 0.0
04 23:55 NE 19 16.09 Overcast FEW043 SCT075 OVC095 11 3 58% 75.74 0.0
04 23:35 NE 20 16.09 Overcast SCT080 OVC095 11 3 58% 75.74 0.0
04 23:15 N 30 G 41 16.09 Overcast FEW049 SCT075 OVC095 12 2 51% 75.79 0.0
04 22:55 N 35 G 46 16.09 Overcast and Breezy FEW045 SCT070 OVC095 12 1 47% 75.74 0.0
04 22:35 N 33 16.09 Mostly Cloudy and Breezy FEW039 SCT070 BKN100 13 1 44% 75.74 0.0
04 22:15 NE 28 G 39 16.09 Overcast FEW070 OVC110 13 0 41% 75.69 0.0
04 21:55 N 30 G 41 16.09 Overcast OVC110 13 0 41% 75.69 0.0
04 21:35 N 31 G 43 16.09 Mostly Cloudy BKN110 14 1 41% 75.67 0.0
04 21:15 N 35 16.09 Mostly Cloudy and Breezy BKN110 14 2 44% 75.59 0.0
04 20:55 N 31 G 50 16.09 Fair CLR 14 2 44% 75.59 0.0
04 20:35 N 52 G 63 16.09 Fair and Windy CLR 15 2 42% 75.54 0.0
04 20:15 N 35 G 50 16.09 Fair and Breezy CLR 16 1 36% 75.46 0.0
04 19:55 N 48 G 57 16.09 Fair and Windy CLR 17 1 34% 75.46 0.0
04 19:35 N 39 G 52 16.09 Fair and Breezy CLR 19 1 30% 75.41 0.0
04 19:15 N 43 G 54 16.09 Fair and Windy CLR 20 1 28% 75.39 0.0
04 18:55 N 35 G 44 16.09 Fair and Breezy CLR 20 1 28% 75.44 0.0
04 18:35 N 39 16.09 Fair and Breezy CLR 21 2 29% 75.41 0.0
04 18:15 N 37 16.09 Fair and Breezy CLR 21 2 29% 75.41 0.0
04 17:55 N 35 G 48 16.09 Fair and Breezy CLR 22 3 29% 75.39 0.0
04 17:35 N 30 G 46 16.09 Fair CLR 22 3 29% 75.39 0.0
04 17:15 N 35 G 46 16.09 Fair and Breezy CLR 22 2 27% 75.36 0.0
04 16:55 N 41 16.09 Fair and Breezy CLR 23 2 25% 75.34 0.0
04 16:35 N 30 G 52 16.09 Fair CLR 23 2 25% 75.34 0.0
04 16:15 N 41 G 52 16.09 Fair and Breezy CLR 24 3 25% 25 75.29 0.0
04 15:55 N 35 G 52 16.09 Fair and Breezy CLR 23 3 27% 75.26 0.0
04 15:35 N 33 G 50 16.09 Fair and Breezy CLR 24 4 27% 25 75.29 0.0
04 15:15 N 30 G 43 16.09 Fair CLR 24 5 29% 25 75.29 0.0
04 14:55 N 28 G 48 16.09 Fair CLR 25 6 30% 25 75.29 0.0
04 14:35 N 35 G 52 16.09 Fair and Breezy CLR 25 6 30% 25 75.26 0.0
04 14:15 N 26 G 46 16.09 Fair CLR 26 7 30% 26 75.26 0.0
04 13:55 N 20 G 48 16.09 Fair CLR 25 6 30% 25 75.26 0.0
04 13:35 N 28 G 56 16.09 Fair CLR 26 6 28% 26 75.26 0.0
04 13:15 NW 26 G 43 16.09 Fair CLR 27 5 24% 26 75.23 0.0
04 12:55 NW 28 G 37 16.09 Fair CLR 27 4 23% 26 75.23 0.0
04 12:35 N 20 G 41 16.09 Fair CLR 27 4 23% 26 75.23 0.0
04 12:15 W 17 G 37 16.09 Fair CLR 27 2 20% 26 75.23 0.0
04 11:55 NW 19 G 33 16.09 Fair CLR 26 3 23% 26 75.26 0.0
04 11:35 W 30 16.09 Fair CLR 26 4 24% 26 75.26 0.0
04 11:15 W 26 16.09 Fair CLR 25 5 28% 25 75.26 0.0
04 10:55 W 24 16.09 Fair CLR 24 5 29% 25 75.26 0.0
04 10:35 W 24 16.09 Fair CLR 23 6 33% 75.26 0.0
04 10:15 W 22 16.09 Fair CLR 22 6 36% 75.29 0.0
04 09:55 W 19 16.09 Fair CLR 21 5 35% 75.29 0.0
04 09:35 W 20 16.09 Fair CLR 20 5 38% 75.29 0.0
04 09:15 W 20 16.09 Fair CLR 19 5 40% 75.29 0.0
04 08:55 NW 17 16.09 Fair CLR 17 5 45% 75.29 0.0
04 08:35 NW 17 16.09 Fair CLR 16 6 52% 75.29 0.0
04 08:15 NW 19 16.09 Fair CLR 14 5 55% 75.29 0.0
04 07:55 NW 17 16.09 Fair CLR 13 6 63% 75.29 0.0
04 07:35 N 6 16.09 Fair CLR 11 6 72% 75.29 0.0
04 06:55 W 13 14.48 Fair CLR 8 5 82% 6 75.23 0.0
04 06:35 W 17 16.09 Fair CLR 8 5 82% 6 75.23 0.0
04 06:15 W 9 16.09 Fair CLR 8 4 76% 7 75.23 0.0
04 05:55 W 11 16.09 Fair CLR 7 4 81% 5 75.23 0.0
04 05:35 W 6 16.09 Fair CLR 8 4 76% 75.23 0.0
04 05:15 Calm 16.09 Fair CLR 8 4 76% 75.23 0.0
04 04:55 W 7 16.09 Fair CLR 8 4 76% 7 75.26 0.0
04 04:35 SW 7 16.09 Fair CLR 8 4 76% 7 75.26 0.0
04 04:15 S 11 16.09 Fair CLR 9 5 76% 8 75.29 0.0
04 03:55 SW 11 16.09 Fair CLR 9 5 76% 8 75.31 0.0
04 03:35 S 7 16.09 Fair CLR 12 3 54% 75.31 0.0
04 03:15 S 7 16.09 Fair CLR 12 3 54% 75.31 0.0
04 02:55 S 11 16.09 Fair CLR 13 3 51% 75.34 0.0
04 02:35 S 11 16.09 Fair CLR 12 4 58% 75.36 0.0
04 02:15 S 11 16.09 Fair CLR 12 3 54% 75.39 0.0
04 01:55 S 11 16.09 Fair CLR 12 4 58% 75.44 0.0
04 01:35 S 11 16.09 Fair CLR 13 4 55% 75.44 0.0
04 01:15 SE 15 16.09 Fair CLR 15 3 45% 75.46 0.0
04 00:55 SE 9 16.09 Fair CLR 14 4 51% 75.49 0.0
04 00:35 SE 9 16.09 Fair CLR 14 4 51% 75.51 0.0
04 00:15 SE 9 16.09 Fair CLR 15 4 48% 75.54 0.0
03 23:55 SE 7 16.09 Fair CLR 15 3 45% 75.54 0.0
03 23:35 SE 9 16.09 Mostly Cloudy BKN065 16 3 42% 75.54 0.0
03 23:15 SE 11 16.09 Overcast OVC060 15 4 48% 75.57 0.0
03 22:55 SE 11 16.09 Overcast BKN065 BKN075 OVC095 16 4 45% 75.57 0.0
03 22:35 SE 13 16.09 Mostly Cloudy FEW075 BKN090 17 3 39% 75.59 0.0
03 22:15 SE 11 16.09 Partly Cloudy SCT085 17 3 39% 75.62 0.0
03 21:55 SE 9 16.09 A Few Clouds FEW080 17 3 39% 75.62 0.0
03 21:35 SE 7 16.09 Fair CLR 17 4 42% 75.62 0.0
03 21:15 E 9 16.09 Fair CLR 18 4 40% 75.62 0.0
03 20:55 E 9 16.09 Fair CLR 19 3 35% 75.62 0.0
03 20:35 Calm 16.09 Fair CLR 19 5 40% 75.64 0.0
03 20:15 N 7 16.09 Fair CLR 21 2 29% 75.62 0.0
03 19:55 Calm 16.09 Fair CLR 21 3 31% 75.64 0.0
03 19:35 Calm 16.09 Fair CLR 22 3 29% 75.67 0.0
03 19:15 Calm 16.09 Fair CLR 22 6 36% 75.67 0.0
03 18:55 Calm 16.09 Fair CLR 23 2 25% 75.69 0.0
03 18:35 Calm 16.09 Fair CLR 23 2 25% 75.72 0.0
03 18:15 Vrbl 6 16.09 Fair CLR 23 2 25% 75.72 0.0
03 17:55 Calm 14.48 Fair CLR 23 2 25% 75.74 0.0
03 17:35 NW 7 16.09 Fair CLR 23 2 25% 75.74 0.0
03 17:15 Calm 16.09 Fair CLR 23 2 25% 75.74 0.0
03 16:55 Vrbl 6 16.09 Fair CLR 23 3 27% 75.77 0.0
03 16:35 E 7 G 20 16.09 Fair CLR 23 2 25% 75.77 0.0
03 16:15 Calm 16.09 Fair CLR 23 1 23% 75.77 0.0
03 15:55 N 7 G 19 16.09 Fair CLR 23 2 25% 75.79 0.0
03 15:35 Vrbl 7 16.09 Fair CLR 23 2 25% 75.82 0.0
03 15:15 Vrbl 6 G 24 16.09 Fair CLR 22 2 27% 75.84 0.0
03 14:55 NE 17 G 28 16.09 Fair CLR 23 3 27% 75.87 0.0
03 14:35 N 15 16.09 Fair CLR 23 3 27% 75.87 0.0
03 14:15 N 19 G 33 16.09 Fair CLR 23 2 25% 75.9 0.0
03 13:55 N 15 16.09 Fair CLR 23 3 27% 75.9 0.0
03 13:35 N 13 G 24 16.09 Fair CLR 23 3 27% 75.9 0.0
03 13:15 NE 22 16.09 Fair CLR 23 3 27% 75.92 0.0
03 12:55 NE 15 G 31 16.09 Fair CLR 23 3 27% 75.95 0.0
03 12:35 N 15 G 28 16.09 Fair CLR 22 3 29% 75.97 0.0
03 12:15 N 19 G 28 16.09 Fair CLR 22 3 29% 75.97 0.0
03 11:55 N 22 16.09 Fair CLR 22 4 31% 75.97 0.0
03 11:35 N 13 G 30 16.09 Fair CLR 21 5 35% 75.97 0.0
03 11:15 N 24 16.09 Fair CLR 21 4 33% 76 0.0
03 10:55 N 17 G 26 16.09 Fair CLR 20 4 35% 76 0.0
03 10:35 N 15 16.09 Fair CLR 19 4 37% 76 0.0
03 10:15 N 17 16.09 Fair CLR 19 4 37% 76 0.0
03 09:55 NW 19 16.09 Fair CLR 18 4 40% 76 0.0
03 09:35 N 13 G 22 16.09 Fair CLR 17 3 39% 76 0.0
03 09:15 NW 13 16.09 Fair CLR 17 3 39% 75.97 0.0
03 08:55 NW 17 16.09 Fair CLR 16 4 45% 75.97 0.0
03 08:35 W 15 16.09 Fair CLR 15 4 48% 75.95 0.0
03 08:15 W 15 16.09 Fair CLR 13 4 55% 75.92 0.0
03 07:55 W 15 16.09 Fair CLR 12 4 58% 75.95 0.0
03 07:35 SW 15 16.09 Fair CLR 10 4 67% 8 75.92 0.0
03 07:15 SW 13 16.09 Fair CLR 9 3 66% 7 75.9 0.0
03 06:55 SW 15 16.09 Fair CLR 9 3 66% 7 75.9 0.0
03 06:35 SW 15 16.09 Fair CLR 8 3 71% 6 75.9 0.0
03 06:15 SW 13 16.09 Fair CLR 8 2 66% 6 75.87 0.0
03 05:35 SW 13 16.09 Fair CLR 8 2 66% 6 75.87 0.0
03 05:15 W 17 16.09 Fair CLR 10 1 54% 8 75.92 0.0
03 04:55 NW 30 G 43 16.09 Fair CLR 10 0 50% 7 75.97 0.0
03 04:35 SW 24 16.09 Fair CLR 11 0 47% 75.82 0.0
03 04:15 S 20 16.09 Fair CLR 10 0 50% 8 75.84 0.0
03 03:55 S 19 16.09 Fair CLR 10 -1 47% 8 75.84 0.0
03 03:35 S 20 16.09 Fair CLR 10 -1 47% 8 75.84 0.0
03 03:15 SW 22 16.09 Fair CLR 11 -1 44% 75.87 0.0
03 02:55 SW 24 16.09 Fair CLR 11 -1 44% 75.9 0.0
03 02:35 SW 26 G 35 16.09 Fair CLR 12 -1 41% 75.92 0.0
03 02:15 SW 24 G 35 16.09 Fair CLR 12 -1 41% 75.92 0.0
03 01:55 SW 26 16.09 Fair CLR 12 -1 41% 75.95 0.0
03 01:35 SW 26 16.09 Fair CLR 12 -1 41% 75.95 0.0
03 01:15 S 30 G 39 16.09 Fair CLR 13 -1 38% 75.95 0.0
03 00:55 S 28 16.09 Fair CLR 13 -1 38% 75.95 0.0
03 00:35 S 28 16.09 Fair CLR 13 -1 38% 75.95 0.0
03 00:15 S 28 16.09 Fair CLR 13 -1 38% 75.97 0.0
02 23:55 S 26 16.09 Fair CLR 13 -1 38% 75.97 0.0
02 23:35 S 30 16.09 Fair CLR 14 -1 36% 75.97 0.0
02 23:15 S 26 16.09 Fair CLR 13 -2 36% 76 0.0
02 22:55 S 26 16.09 Fair CLR 13 -2 36% 76 0.0
02 22:35 S 22 16.09 Fair CLR 13 -1 38% 76.02 0.0
02 22:15 S 20 16.09 Fair CLR 14 -2 33% 76.05 0.0
02 21:55 S 22 16.09 Fair CLR 14 -2 33% 76.05 0.0
02 21:35 S 20 16.09 Fair CLR 15 -2 31% 76.07 0.0
02 21:15 S 17 16.09 Fair CLR 15 -1 34% 76.07 0.0
02 20:55 S 15 16.09 Fair CLR 15 -1 34% 76.07 0.0
02 20:35 S 15 16.09 Fair CLR 16 -1 31% 76.07 0.0
02 20:15 S 13 16.09 Fair CLR 17 0 32% 76.1 0.0
02 19:55 SW 13 16.09 Fair CLR 18 0 30% 76.1 0.0
02 19:35 SW 13 16.09 Fair CLR 20 -2 23% 76.12 0.0
02 19:15 SW 19 16.09 Fair CLR 20 -2 23% 76.12 0.0
02 18:55 W 22 16.09 Fair CLR 20 -3 21% 76.15 0.0
02 18:35 W 22 16.09 Fair CLR 20 -3 21% 76.15 0.0
02 18:15 SW 22 G 33 16.09 Fair CLR 21 -3 20% 76.17 0.0
Date Time (cdt) Wind (kph) Vis. (km) Weather Sky Cond. Air Dwpt Max. Min. Relative Humidity Wind Chill (°C) Heat Index (°C) altimeter (cm) sea level (mb) 1 hr 3 hr 6 hr
6 hour
Temperature (ºC) Pressure Precipitation (cm)